Time;durP1;ratioP1;P1;durP2;ratioP2;P2;SDS_P1;SDS_P2;PMS_P1;PMS_P2;Temp;Humidity;BMP_temperature;BMP_pressure;BME280_temperature;BME280_humidity;BME280_pressure;Samples;Min_cycle;Max_cycle;Signal;HPM_P1;HPM_P2
2021/04/02 00:00:56;138962.00;0.46;240.78;0.00;0.00;0.62;;;;;17.90;1.00;;;;;;2264660;61;1718;-84
2021/04/02 00:03:24;389340.00;1.30;671.48;7485.00;0.02;13.59;;;;;17.90;1.00;;;;;;2264658;61;1060;-86
2021/04/02 00:05:52;420213.00;1.40;724.56;0.00;0.00;0.62;;;;;17.70;1.00;;;;;;2264724;61;1083;-86
2021/04/02 00:08:18;230827.00;0.77;398.97;0.00;0.00;0.62;;;;;17.40;1.00;;;;;;2264702;61;1111;-86
2021/04/02 00:10:49;314481.00;1.05;542.81;46376.00;0.15;80.92;;;;;17.60;1.00;;;;;;2264701;61;1301;-85
2021/04/02 00:13:17;143556.00;0.48;248.70;0.00;0.00;0.62;;;;;17.70;1.00;;;;;;2257648;61;2004;-87
2021/04/02 00:15:44;659678.00;2.20;1137.38;18978.00;0.06;33.50;;;;;17.60;1.00;;;;;;2264675;61;1122;-87
2021/04/02 00:18:11;408159.00;1.36;703.83;67718.00;0.23;117.82;;;;;17.70;1.00;;;;;;2264673;61;1122;-86
2021/04/02 00:20:38;312943.00;1.04;540.17;0.00;0.00;0.62;;;;;17.80;1.00;;;;;;2264653;61;1401;-86
2021/04/02 00:23:06;171704.00;0.57;297.20;383.00;0.00;1.28;;;;;17.80;1.00;;;;;;2257655;61;986;-87
2021/04/02 00:25:32;247796.00;0.83;428.16;0.00;0.00;0.62;;;;;17.90;1.00;;;;;;2264639;61;1114;-86
2021/04/02 00:27:59;203329.00;0.68;351.65;0.00;0.00;0.62;;;;;18.00;1.00;;;;;;2264598;61;1170;-86
2021/04/02 00:30:30;206210.00;0.69;356.61;0.00;0.00;0.62;;;;;17.80;1.00;;;;;;2264599;61;1392;-86
2021/04/02 00:32:57;257523.00;0.86;444.89;0.00;0.00;0.62;;;;;17.60;1.00;;;;;;2264590;61;1978;-86
2021/04/02 00:35:24;470909.00;1.57;811.75;23128.00;0.08;40.69;;;;;17.10;1.00;;;;;;2264588;61;1084;-86
2021/04/02 00:37:50;458978.00;1.53;791.23;0.00;0.00;0.62;;;;;16.80;1.00;;;;;;2264565;61;1236;-87
2021/04/02 00:40:21;618672.00;2.06;1066.47;76230.00;0.25;132.52;;;;;16.70;1.00;;;;;;2264610;61;1282;-86
2021/04/02 00:42:49;387638.00;1.29;668.55;0.00;0.00;0.62;;;;;16.80;1.00;;;;;;2264604;61;1075;-87
2021/04/02 00:45:17;365739.00;1.22;630.91;5781.00;0.02;10.64;;;;;16.90;1.00;;;;;;2264576;61;1021;-86
2021/04/02 00:47:45;279953.00;0.93;483.46;0.00;0.00;0.62;;;;;17.00;1.00;;;;;;2256048;61;975;-85
2021/04/02 00:50:17;190158.00;0.63;328.98;0.00;0.00;0.62;;;;;17.10;1.00;;;;;;2256065;61;1300;-85
2021/04/02 00:52:44;234200.00;0.78;404.77;14916.00;0.05;26.47;;;;;17.40;1.00;;;;;;2252721;61;2005;-85
2021/04/02 00:55:13;250527.00;0.84;432.86;0.00;0.00;0.62;;;;;17.60;1.00;;;;;;2256096;61;1047;-86
2021/04/02 01:00:50;1690987.00;5.64;3007.93;377079.00;1.26;650.40;;;;;17.40;1.00;;;;;;2252053;61;1326;-86
2021/04/02 01:06:42;450152.00;1.50;776.04;0.00;0.00;0.62;;;;;16.30;1.00;;;;;;2258607;61;947;-86
2021/04/02 01:09:09;310607.00;1.04;536.15;0.00;0.00;0.62;;;;;16.60;1.00;;;;;;2248003;61;957;-86
2021/04/02 01:11:36;1166366.00;3.89;2029.53;177625.00;0.59;307.40;;;;;16.60;1.00;;;;;;2248006;61;1394;-86
2021/04/02 01:14:02;1003463.00;3.34;1738.61;108766.00;0.36;188.70;;;;;16.70;1.00;;;;;;2248034;61;2009;-86
2021/04/02 01:16:32;1265232.00;4.22;2208.62;62064.00;0.21;108.04;;;;;16.80;1.00;;;;;;2248007;61;1055;-86
2021/04/02 01:19:03;1024933.00;3.42;1776.68;137536.00;0.46;238.32;;;;;16.70;1.00;;;;;;2248050;61;902;-86
2021/04/02 01:21:34;1144649.00;3.82;1990.46;130297.00;0.43;225.84;;;;;16.60;1.00;;;;;;2247994;61;1303;-86
2021/04/02 01:24:27;537052.00;1.79;925.64;0.00;0.00;0.62;;;;;16.50;1.00;;;;;;2248051;61;1142;-86
2021/04/02 01:27:06;604748.00;2.02;1042.42;53667.00;0.18;93.53;;;;;16.10;1.00;;;;;;2252640;61;1007;-86
2021/04/02 01:29:43;341712.00;1.14;589.62;6976.00;0.02;12.71;;;;;15.80;1.00;;;;;;2259972;61;1000;-86
2021/04/02 01:32:15;538414.00;1.79;927.99;0.00;0.00;0.62;;;;;15.70;1.00;;;;;;2259904;61;2013;-87
2021/04/02 01:34:46;464364.00;1.55;800.49;0.00;0.00;0.62;;;;;15.90;1.00;;;;;;2259961;61;1114;-86
2021/04/02 01:37:21;312177.00;1.04;538.85;0.00;0.00;0.62;;;;;16.10;1.00;;;;;;2261484;61;1036;-86
2021/04/02 01:39:51;272622.00;0.91;470.85;0.00;0.00;0.62;;;;;16.20;1.00;;;;;;2263994;61;1111;-86
2021/04/02 01:42:22;656388.00;2.19;1131.69;59066.00;0.20;102.86;;;;;16.30;1.00;;;;;;2263943;61;1361;-86
2021/04/02 01:44:53;642053.00;2.14;1106.89;42073.00;0.14;73.47;;;;;16.20;1.00;;;;;;2263998;61;1072;-86
2021/04/02 01:47:21;296051.00;0.99;511.13;27139.00;0.09;47.63;;;;;16.60;1.00;;;;;;2255873;61;1003;-86
2021/04/02 01:49:48;319979.00;1.07;552.26;24716.00;0.08;43.44;;;;;16.90;1.00;;;;;;2246109;61;1131;-85
2021/04/02 01:52:15;341354.00;1.14;589.00;0.00;0.00;0.62;;;;;17.10;1.00;;;;;;2256512;61;1916;-86
2021/04/02 01:54:43;228142.00;0.76;394.35;0.00;0.00;0.62;;;;;17.40;1.00;;;;;;2253287;61;1029;-86
2021/04/02 01:57:11;366405.00;1.22;632.06;0.00;0.00;0.62;;;;;17.70;1.00;;;;;;2259926;61;1087;-86
2021/04/02 01:59:39;350542.00;1.17;604.79;17097.00;0.06;30.24;;;;;18.00;1.00;;;;;;2256522;61;1034;-86
2021/04/02 02:02:07;368346.00;1.23;635.39;18729.00;0.06;33.07;;;;;17.50;1.00;;;;;;2256479;61;1405;-87
2021/04/02 02:04:35;462018.00;1.54;796.46;25399.00;0.08;44.62;;;;;17.00;1.00;;;;;;2260526;61;1138;-86
2021/04/02 02:07:03;367095.00;1.22;633.24;0.00;0.00;0.62;;;;;16.60;1.00;;;;;;2264322;61;970;-87
2021/04/02 02:09:34;484701.00;1.62;835.49;0.00;0.00;0.62;;;;;15.60;1.00;;;;;;2264341;61;953;-86
2021/04/02 02:12:03;373105.00;1.24;643.57;0.00;0.00;0.62;;;;;15.20;1.00;;;;;;2264278;61;1908;-84
2021/04/02 02:14:33;251258.00;0.84;434.11;0.00;0.00;0.62;;;;;15.40;1.00;;;;;;2257296;61;997;-86
2021/04/02 02:17:03;279093.00;0.93;481.98;0.00;0.00;0.62;;;;;15.60;1.00;;;;;;2264185;61;1115;-85
2021/04/02 02:19:34;197860.00;0.66;342.24;0.00;0.00;0.62;;;;;15.30;1.00;;;;;;2264331;61;998;-86
2021/04/02 02:22:04;232861.00;0.78;402.47;0.00;0.00;0.62;;;;;15.00;1.00;;;;;;2264290;61;1366;-85
2021/04/02 02:24:32;506598.00;1.69;873.18;0.00;0.00;0.62;;;;;15.70;1.00;;;;;;2264301;61;1099;-85
2021/04/02 02:26:58;395451.00;1.32;681.99;12008.00;0.04;21.43;;;;;16.30;1.00;;;;;;2264289;61;1083;-86
2021/04/02 02:29:25;308875.00;1.03;533.18;0.00;0.00;0.62;;;;;16.70;1.00;;;;;;2264301;61;1072;-85
2021/04/02 02:31:52;505390.00;1.68;871.10;41704.00;0.14;72.84;;;;;17.00;1.00;;;;;;2264254;61;1291;-86
2021/04/02 02:34:18;149815.00;0.50;259.49;0.00;0.00;0.62;;;;;16.80;1.00;;;;;;2264293;61;1127;-85
2021/04/02 02:36:47;328122.00;1.09;566.26;0.00;0.00;0.62;;;;;16.60;1.00;;;;;;2257242;61;922;-85
2021/04/02 02:39:15;279445.00;0.93;482.58;0.00;0.00;0.62;;;;;16.70;1.00;;;;;;2260549;61;992;-85
2021/04/02 02:41:43;183152.00;0.61;316.92;0.00;0.00;0.62;;;;;16.80;1.00;;;;;;2260499;61;1368;-86
2021/04/02 02:44:10;254268.00;0.85;439.29;0.00;0.00;0.62;;;;;17.00;1.00;;;;;;2257247;61;1017;-84
2021/04/02 02:46:36;499874.00;1.67;861.61;0.00;0.00;0.62;;;;;17.40;1.00;;;;;;2255741;61;946;-85
2021/04/02 02:49:08;386737.00;1.29;667.01;24021.00;0.08;42.23;;;;;17.60;1.00;;;;;;2255811;61;1029;-86
2021/04/02 02:51:37;312512.00;1.04;539.43;0.00;0.00;0.62;;;;;17.60;1.00;;;;;;2251705;61;1310;-86
2021/04/02 02:54:06;237233.00;0.79;409.99;0.00;0.00;0.62;;;;;17.80;1.00;;;;;;2248360;61;2009;-85
2021/04/02 02:56:36;157535.00;0.53;272.79;0.00;0.00;0.62;;;;;18.00;1.00;;;;;;2248438;61;1069;-85
2021/04/02 02:59:06;302199.00;1.01;521.70;0.00;0.00;0.62;;;;;18.00;1.00;;;;;;2247698;61;948;-85
2021/04/02 03:01:35;516769.00;1.72;890.70;0.00;0.00;0.62;;;;;17.60;1.00;;;;;;2237944;61;1363;-85
2021/04/02 03:04:03;423269.00;1.41;729.81;34306.00;0.11;60.04;;;;;16.20;1.00;;;;;;2249511;61;1687;-86
2021/04/02 03:06:35;299194.00;1.00;516.53;1487.00;0.00;3.20;;;;;15.90;1.00;;;;;;2255690;61;1078;-85
2021/04/02 03:09:05;303893.00;1.01;524.61;0.00;0.00;0.62;;;;;15.90;1.00;;;;;;2256715;61;1155;-86
2021/04/02 03:11:33;240582.00;0.80;415.75;0.00;0.00;0.62;;;;;16.00;1.00;;;;;;2259684;61;1314;-86
2021/04/02 03:14:01;377621.00;1.26;651.34;0.00;0.00;0.62;;;;;16.50;1.00;;;;;;2253048;61;2046;-85
2021/04/02 03:16:28;236776.00;0.79;409.21;0.00;0.00;0.62;;;;;16.60;1.00;;;;;;2260913;61;961;-86
2021/04/02 03:18:57;276933.00;0.92;478.26;0.00;0.00;0.62;;;;;16.80;1.00;;;;;;2264168;61;1039;-86
2021/04/02 03:21:25;294304.00;0.98;508.13;0.00;0.00;0.62;;;;;16.70;1.00;;;;;;2264105;61;1363;-86
2021/04/02 03:23:54;325248.00;1.08;561.32;57367.00;0.19;99.92;;;;;16.80;1.00;;;;;;2264162;61;994;-86
2021/04/02 03:26:22;430332.00;1.43;741.96;31513.00;0.11;55.20;;;;;16.60;1.00;;;;;;2264170;61;1107;-85
2021/04/02 03:28:49;197425.00;0.66;341.49;0.00;0.00;0.62;;;;;16.70;1.00;;;;;;2264141;61;1022;-85
2021/04/02 03:31:17;264994.00;0.88;457.74;0.00;0.00;0.62;;;;;16.40;1.00;;;;;;2256258;61;1306;-85
2021/04/02 03:33:51;245740.00;0.82;424.62;0.00;0.00;0.62;;;;;16.30;1.00;;;;;;2256344;61;2073;-86
2021/04/02 03:36:21;485041.00;1.62;836.07;0.00;0.00;0.62;;;;;16.30;1.00;;;;;;2252326;61;902;-86
2021/04/02 03:38:50;207001.00;0.69;357.97;0.00;0.00;0.62;;;;;16.40;1.00;;;;;;2252350;61;1114;-85
2021/04/02 03:41:22;234435.00;0.78;405.18;0.00;0.00;0.62;;;;;16.70;1.00;;;;;;2252285;61;1425;-86
2021/04/02 03:43:50;457207.00;1.52;788.18;0.00;0.00;0.62;;;;;17.00;1.00;;;;;;2245775;61;1014;-86
2021/04/02 03:46:19;239615.00;0.80;414.09;0.00;0.00;0.62;;;;;17.10;1.00;;;;;;2248246;61;1133;-85
2021/04/02 03:48:48;286338.00;0.95;494.43;0.00;0.00;0.62;;;;;17.10;1.00;;;;;;2245062;61;1060;-85
2021/04/02 03:51:19;188740.00;0.63;326.54;0.00;0.00;0.62;;;;;16.60;1.00;;;;;;2260220;61;1298;-86
2021/04/02 03:53:47;447150.00;1.49;770.88;0.00;0.00;0.62;;;;;15.90;1.00;;;;;;2260241;61;1916;-85
2021/04/02 03:56:19;262163.00;0.87;452.87;0.00;0.00;0.62;;;;;15.80;1.00;;;;;;2260270;61;1127;-85
2021/04/02 03:58:49;471983.00;1.57;813.60;31322.00;0.10;54.87;;;;;16.00;1.00;;;;;;2260246;61;1059;-86
2021/04/02 04:01:20;289452.00;0.96;499.79;11504.00;0.04;20.55;;;;;15.90;1.00;;;;;;2260243;61;1376;-86
2021/04/02 04:03:50;435458.00;1.45;750.77;11651.00;0.04;20.81;;;;;15.90;1.00;;;;;;2261439;61;1086;-86
2021/04/02 04:06:19;304256.00;1.01;525.24;0.00;0.00;0.62;;;;;16.10;1.00;;;;;;2264719;61;1138;-86
2021/04/02 04:08:47;366601.00;1.22;632.39;0.00;0.00;0.62;;;;;16.30;1.00;;;;;;2257654;61;998;-86
2021/04/02 04:11:17;336391.00;1.12;580.47;0.00;0.00;0.62;;;;;16.50;1.00;;;;;;2264696;61;1449;-86
2021/04/02 04:13:49;236728.00;0.79;409.12;0.00;0.00;0.62;;;;;16.80;1.00;;;;;;2260902;61;1912;-86
2021/04/02 04:16:20;291635.00;0.97;503.54;0.00;0.00;0.62;;;;;16.70;1.00;;;;;;2264699;61;1053;-86
2021/04/02 04:18:51;382370.00;1.27;659.50;22404.00;0.07;39.43;;;;;16.40;1.00;;;;;;2264679;61;1065;-85
2021/04/02 04:21:19;306672.00;1.02;529.39;0.00;0.00;0.62;;;;;16.20;1.00;;;;;;2264621;61;1481;-86
2021/04/02 04:23:48;567525.00;1.89;978.18;95005.00;0.32;164.95;;;;;16.20;1.00;;;;;;2264636;61;1091;-87
2021/04/02 04:26:16;434822.00;1.45;749.68;73770.00;0.25;128.27;;;;;16.10;1.00;;;;;;2264629;61;1130;-86
2021/04/02 04:28:45;545766.00;1.82;940.66;26980.00;0.09;47.36;;;;;16.10;1.00;;;;;;2264625;61;1122;-86
2021/04/02 04:31:18;396946.00;1.32;684.56;29700.00;0.10;52.06;;;;;16.00;1.00;;;;;;2260023;61;1397;-86
2021/04/02 04:33:47;223867.00;0.75;387.00;0.00;0.00;0.62;;;;;15.70;1.00;;;;;;2260070;61;1910;-86
2021/04/02 04:36:16;357922.00;1.19;617.48;0.00;0.00;0.62;;;;;15.70;1.00;;;;;;2260116;61;1134;-86
2021/04/02 04:38:47;295043.00;0.98;509.40;0.00;0.00;0.62;;;;;15.80;1.00;;;;;;2260121;61;1200;-86
2021/04/02 04:41:15;318768.00;1.06;550.18;27329.00;0.09;47.96;;;;;16.20;1.00;;;;;;2253418;61;1354;-86
2021/04/02 04:43:43;268474.00;0.89;463.72;0.00;0.00;0.62;;;;;16.20;1.00;;;;;;2253201;61;1054;-86
2021/04/02 04:46:10;545124.00;1.82;939.55;27181.00;0.09;47.70;;;;;16.20;1.00;;;;;;2253461;61;1030;-86
2021/04/02 04:48:43;198550.00;0.66;343.43;0.00;0.00;0.62;;;;;16.20;1.00;;;;;;2254779;61;974;-86
2021/04/02 04:51:10;189139.00;0.63;327.23;0.00;0.00;0.62;;;;;16.50;1.00;;;;;;2264527;61;1440;-86
2021/04/02 04:53:39;229129.00;0.76;396.05;0.00;0.00;0.62;;;;;16.50;1.00;;;;;;2257505;61;2007;-86
2021/04/02 04:56:12;367641.00;1.23;634.18;0.00;0.00;0.62;;;;;16.60;1.00;;;;;;2256027;61;1042;-86
2021/04/02 04:58:42;183020.00;0.61;316.69;0.00;0.00;0.62;;;;;16.60;1.00;;;;;;2252716;61;967;-86
2021/04/02 05:01:12;213733.00;0.71;369.56;0.00;0.00;0.62;;;;;16.80;1.00;;;;;;2252695;61;1460;-86
2021/04/02 05:03:40;745872.00;2.49;1286.88;98652.00;0.33;171.24;;;;;17.00;1.00;;;;;;2252712;61;1022;-86
2021/04/02 05:06:08;255866.00;0.85;442.04;0.00;0.00;0.62;;;;;17.30;1.00;;;;;;2256090;61;1064;-86
2021/04/02 05:08:40;343550.00;1.15;592.78;0.00;0.00;0.62;;;;;17.30;1.00;;;;;;2252714;61;1032;-86
2021/04/02 05:11:11;302677.00;1.01;522.52;0.00;0.00;0.62;;;;;17.20;1.00;;;;;;2255934;61;1345;-85
2021/04/02 05:13:41;154734.00;0.52;267.97;0.00;0.00;0.62;;;;;17.30;1.00;;;;;;2249656;61;1914;-86
2021/04/02 05:16:10;253623.00;0.85;438.18;0.00;0.00;0.62;;;;;17.50;1.00;;;;;;2261390;61;979;-87
2021/04/02 05:18:37;255003.00;0.85;440.56;0.00;0.00;0.62;;;;;17.60;1.00;;;;;;2268046;61;1146;-86
2021/04/02 05:21:07;130807.00;0.44;226.72;0.00;0.00;0.62;;;;;17.30;1.00;;;;;;2268016;61;1361;-86
2021/04/02 05:23:33;219990.00;0.73;380.33;0.00;0.00;0.62;;;;;17.10;1.00;;;;;;2268047;61;1085;-85
2021/04/02 05:25:59;295638.00;0.99;510.42;0.00;0.00;0.62;;;;;17.00;1.00;;;;;;2261324;61;959;-85
2021/04/02 05:28:26;165928.00;0.55;287.25;0.00;0.00;0.62;;;;;16.50;1.00;;;;;;2260668;61;968;-86
2021/04/02 05:30:52;246651.00;0.82;426.19;0.00;0.00;0.62;;;;;16.00;1.00;;;;;;2264426;61;1361;-85
2021/04/02 05:33:20;474905.00;1.58;818.63;41312.00;0.14;72.16;;;;;15.40;1.00;;;;;;2264382;61;1994;-85
2021/04/02 05:35:49;374982.00;1.25;646.80;25769.00;0.09;45.26;;;;;14.60;1.00;;;;;;2264364;61;1707;-85
2021/04/02 05:38:16;344969.00;1.15;595.21;0.00;0.00;0.62;;;;;14.50;1.00;;;;;;2264432;61;965;-85
2021/04/02 05:40:43;447802.00;1.49;772.00;66244.00;0.22;115.27;;;;;14.60;1.00;;;;;;2264360;61;1409;-85
2021/04/02 05:43:15;280474.00;0.93;484.35;12650.00;0.04;22.54;;;;;14.80;1.00;;;;;;2264402;61;1138;-85
2021/04/02 05:45:42;229389.00;0.76;396.50;0.00;0.00;0.62;;;;;15.00;1.00;;;;;;2264410;61;1071;-86
2021/04/02 05:48:10;383859.00;1.28;662.06;0.00;0.00;0.62;;;;;15.30;1.00;;;;;;2264393;61;1187;-86
2021/04/02 05:50:38;185895.00;0.62;321.64;0.00;0.00;0.62;;;;;15.60;1.00;;;;;;2264388;61;1384;-85
2021/04/02 05:53:08;202820.00;0.68;350.78;0.00;0.00;0.62;;;;;15.70;1.00;;;;;;2257141;61;1996;-86
2021/04/02 05:55:36;401686.00;1.34;692.70;49241.00;0.16;85.87;;;;;16.10;1.00;;;;;;2264372;61;1103;-86
2021/04/02 05:58:04;348421.00;1.16;601.15;52139.00;0.17;90.89;;;;;16.40;1.00;;;;;;2257394;61;1032;-86
2021/04/02 06:00:32;315239.00;1.05;544.11;0.00;0.00;0.62;;;;;16.60;1.00;;;;;;2257342;61;1352;-86
2021/04/02 06:03:02;166875.00;0.56;288.88;0.00;0.00;0.62;;;;;17.10;1.00;;;;;;2255844;61;984;-86
2021/04/02 06:05:28;371954.00;1.24;641.60;40630.00;0.14;70.98;;;;;17.40;1.00;;;;;;2255782;61;1030;-85
2021/04/02 06:07:57;292648.00;0.98;505.28;0.00;0.00;0.62;;;;;17.70;1.00;;;;;;2255851;61;1191;-86
2021/04/02 06:10:24;219841.00;0.73;380.07;0.00;0.00;0.62;;;;;18.00;1.00;;;;;;2255841;61;1451;-86
2021/04/02 06:12:52;160754.00;0.54;278.34;0.00;0.00;0.62;;;;;17.40;1.00;;;;;;2249254;61;1916;-86
2021/04/02 06:15:19;256040.00;0.85;442.34;0.00;0.00;0.62;;;;;16.10;1.00;;;;;;2255836;61;990;-86
2021/04/02 06:18:03;231089.00;0.77;399.42;0.00;0.00;0.62;;;;;15.00;1.00;;;;;;2255834;61;1083;-86
2021/04/02 06:20:31;644896.00;2.15;1111.81;116784.00;0.39;202.53;;;;;14.40;1.00;;;;;;2255225;61;1306;-85
2021/04/02 06:23:10;357571.00;1.19;616.87;0.00;0.00;0.62;;;;;13.90;1.00;;;;;;2257246;61;940;-85
2021/04/02 06:25:39;588747.00;1.96;1014.79;0.00;0.00;0.62;;;;;13.70;1.00;;;;;;2264342;61;902;-86
2021/04/02 06:28:16;655374.00;2.18;1129.93;130014.00;0.43;225.35;;;;;14.00;1.00;;;;;;2264339;61;1097;-86
2021/04/02 06:30:43;478600.00;1.60;824.99;115686.00;0.39;200.64;;;;;14.40;1.00;;;;;;2264273;61;1386;-86
2021/04/02 06:33:11;258164.00;0.86;445.99;15305.00;0.05;27.14;;;;;14.60;1.00;;;;;;2264257;61;1997;-86
2021/04/02 06:35:42;299366.00;1.00;516.83;0.00;0.00;0.62;;;;;14.60;1.00;;;;;;2264285;61;1142;-85
2021/04/02 06:38:09;224266.00;0.75;387.68;0.00;0.00;0.62;;;;;14.80;1.00;;;;;;2264292;61;1068;-86
2021/04/02 06:40:36;217391.00;0.72;375.85;0.00;0.00;0.62;;;;;14.60;1.00;;;;;;2260401;61;1310;-86
2021/04/02 06:43:04;406834.00;1.36;701.55;11561.00;0.04;20.65;;;;;14.30;1.00;;;;;;2264246;61;1111;-86
2021/04/02 06:45:31;275638.00;0.92;476.04;0.00;0.00;0.62;;;;;14.20;1.00;;;;;;2264274;61;1013;-86
2021/04/02 06:48:14;355373.00;1.18;613.10;24985.00;0.08;43.90;;;;;13.80;1.00;;;;;;2264264;61;1039;-85
2021/04/02 06:50:41;423460.00;1.41;730.14;0.00;0.00;0.62;;;;;13.50;1.00;;;;;;2264194;61;1433;-86
2021/04/02 06:53:08;225485.00;0.75;389.78;0.00;0.00;0.62;;;;;13.50;1.00;;;;;;2264203;61;1989;-86
2021/04/02 06:55:37;322639.00;1.08;556.83;38179.00;0.13;66.74;;;;;13.90;1.00;;;;;;2263769;61;967;-86
2021/04/02 06:58:07;196593.00;0.66;340.06;0.00;0.00;0.62;;;;;13.80;1.00;;;;;;2264202;61;1011;-86
2021/04/02 07:00:37;376510.00;1.26;649.43;0.00;0.00;0.62;;;;;14.00;1.00;;;;;;2264189;61;1491;-85
2021/04/02 07:03:06;170811.00;0.57;295.66;0.00;0.00;0.62;;;;;14.00;1.00;;;;;;2264199;61;1615;-86
2021/04/02 07:05:34;418420.00;1.39;721.47;0.00;0.00;0.62;;;;;14.60;1.00;;;;;;2264299;61;996;-86
2021/04/02 07:08:04;357776.00;1.19;617.23;0.00;0.00;0.62;;;;;15.10;1.00;;;;;;2260997;61;1003;-85
2021/04/02 07:10:32;210276.00;0.70;363.61;13524.00;0.05;24.05;;;;;16.00;1.00;;;;;;2264357;61;1450;-86
2021/04/02 07:13:02;274349.00;0.91;473.82;0.00;0.00;0.62;;;;;16.50;1.00;;;;;;2264371;61;1907;-87
2021/04/02 07:15:31;185848.00;0.62;321.56;0.00;0.00;0.62;;;;;17.20;1.00;;;;;;2264353;61;1178;-86
2021/04/02 07:18:01;90842.00;0.30;157.76;0.00;0.00;0.62;;;;;17.00;1.00;;;;;;2264359;61;1095;-85
2021/04/02 07:20:28;177219.00;0.59;306.70;0.00;0.00;0.62;;;;;17.30;1.00;;;;;;2260983;61;1310;-86
2021/04/02 07:22:55;73929.00;0.25;128.55;0.00;0.00;0.62;;;;;17.90;1.00;;;;;;2254683;61;1054;-87
2021/04/02 07:25:22;119385.00;0.40;207.02;0.00;0.00;0.62;;;;;17.50;1.00;;;;;;2264794;61;1043;-86
2021/04/02 07:27:51;161194.00;0.54;279.10;0.00;0.00;0.62;;;;;17.20;1.00;;;;;;2264383;61;920;-86
2021/04/02 07:30:20;305126.00;1.02;526.73;35036.00;0.12;61.30;;;;;17.10;1.00;;;;;;2264775;61;1497;-85
2021/04/02 08:39:24;124168.00;0.41;215.27;38022.00;0.13;66.47;;;;;15.50;1.00;;;;;;2279050;61;934;-88
2021/04/02 08:44:27;98150.00;0.33;170.38;32101.00;0.11;56.22;;;;;17.10;1.00;;;;;;2283225;61;1381;-84
2021/04/02 08:49:22;533453.00;1.78;919.44;122067.00;0.41;211.65;;;;;17.30;1.00;;;;;;2278890;61;1326;-88
2021/04/02 08:51:49;152374.00;0.51;263.90;0.00;0.00;0.62;;;;;17.10;1.00;;;;;;2272878;61;1399;-88
2021/04/02 08:54:18;257506.00;0.86;444.86;0.00;0.00;0.62;;;;;16.90;1.00;;;;;;2268896;61;1929;-88
2021/04/02 09:01:45;34143.00;0.11;59.75;0.00;0.00;0.62;;;;;17.30;1.00;;;;;;2282498;61;1388;-88
2021/04/02 10:30:31;138588.00;0.46;240.14;0.00;0.00;0.62;;;;;14.40;1.00;;;;;;2283036;61;1299;-86
2021/04/02 11:29:55;55260.00;0.18;96.28;0.00;0.00;0.62;;;;;14.50;1.00;;;;;;2279230;61;1283;-87
2021/04/02 12:49:17;64798.00;0.22;112.77;0.00;0.00;0.62;;;;;15.30;1.00;;;;;;2504442;40;3793;31
2021/04/02 13:33:54;239907.00;0.80;414.59;87773.00;0.29;152.46;;;;;16.60;1.00;;;;;;2513337;40;3657;31
2021/04/02 14:03:28;248296.00;0.83;429.02;85841.00;0.29;149.13;;;;;15.90;1.00;;;;;;2278208;61;1329;-87
2021/04/02 14:10:51;470848.00;1.57;811.65;86844.00;0.29;150.86;;;;;16.40;1.00;;;;;;2278229;61;1318;-87
2021/04/02 14:15:49;371920.00;1.24;641.54;82758.00;0.28;143.80;;;;;16.50;1.00;;;;;;2278126;61;1317;-89
2021/04/02 14:18:15;384227.00;1.28;662.69;76183.00;0.25;132.44;;;;;16.00;1.00;;;;;;2269286;61;820;-88
2021/04/02 14:25:39;201820.00;0.67;349.06;0.00;0.00;0.62;;;;;15.80;1.00;;;;;;2278172;61;939;-86
2021/04/02 14:40:28;120987.00;0.40;209.78;0.00;0.00;0.62;;;;;16.10;1.00;;;;;;2278343;61;1294;-83
2021/04/02 14:42:55;183048.00;0.61;316.74;0.00;0.00;0.62;;;;;15.80;1.00;;;;;;2269170;61;1378;-88
2021/04/02 14:47:58;810360.00;2.70;1399.20;0.00;0.00;0.62;;;;;15.80;1.00;;;;;;2266487;61;1288;-87
2021/04/02 14:50:28;492508.00;1.64;848.93;0.00;0.00;0.62;;;;;15.70;1.00;;;;;;2264247;61;935;-88
2021/04/02 14:52:58;521042.00;1.74;898.06;0.00;0.00;0.62;;;;;15.40;1.00;;;;;;2264213;61;1990;-87
2021/04/02 14:55:24;661760.00;2.21;1140.99;116985.00;0.39;202.88;;;;;15.50;1.00;;;;;;2264068;61;1413;-88
2021/04/02 14:57:52;388953.00;1.30;670.81;0.00;0.00;0.62;;;;;15.60;1.00;;;;;;2264162;61;1067;-89
2021/04/02 15:00:21;343289.00;1.14;592.33;0.00;0.00;0.62;;;;;15.40;1.00;;;;;;2264075;61;1746;-87
2021/04/02 15:02:48;428884.00;1.43;739.47;0.00;0.00;0.62;;;;;15.30;1.00;;;;;;2264199;61;1671;-88
2021/04/02 15:05:16;721582.00;2.41;1244.68;4520.00;0.02;8.45;;;;;15.50;1.00;;;;;;2264172;61;1554;-88
2021/04/02 15:07:43;736326.00;2.45;1270.29;0.00;0.00;0.62;;;;;15.40;1.00;;;;;;2263884;61;1554;-89
2021/04/02 15:10:12;514824.00;1.72;887.35;0.00;0.00;0.62;;;;;15.30;1.00;;;;;;2264094;61;964;-86
2021/04/02 15:12:38;451464.00;1.50;778.30;0.00;0.00;0.62;;;;;15.40;1.00;;;;;;2264208;61;2004;-88
2021/04/02 15:15:07;575664.00;1.92;992.22;0.00;0.00;0.62;;;;;15.30;1.00;;;;;;2264467;61;1639;-86
2021/04/02 15:17:34;212962.00;0.71;368.23;0.00;0.00;0.62;;;;;15.50;1.00;;;;;;2264755;61;978;-87
2021/04/02 15:20:04;304746.00;1.02;526.08;0.00;0.00;0.62;;;;;15.30;1.00;;;;;;2257708;61;1023;-87
2021/04/02 15:22:30;261465.00;0.87;451.67;0.00;0.00;0.62;;;;;15.40;1.00;;;;;;2264469;61;1782;-88
2021/04/02 15:24:58;661300.00;2.20;1140.19;92395.00;0.31;160.44;;;;;15.60;1.00;;;;;;2264443;61;934;-88
2021/04/02 15:27:24;481524.00;1.61;830.02;0.00;0.00;0.62;;;;;15.50;1.00;;;;;;2264593;61;1746;-88
2021/04/02 15:29:51;463348.00;1.54;798.74;38866.00;0.13;67.93;;;;;15.20;1.00;;;;;;2264677;61;1072;-88
2021/04/02 15:32:17;530004.00;1.77;913.50;78042.00;0.26;135.65;;;;;15.00;1.00;;;;;;2264717;61;1911;-88
2021/04/02 15:34:45;698551.00;2.33;1204.73;145281.00;0.48;251.67;;;;;15.20;1.00;;;;;;2264609;61;1613;-88
2021/04/02 15:37:11;698521.00;2.33;1204.67;84472.00;0.28;146.76;;;;;15.20;1.00;;;;;;2264474;61;1634;-87
2021/04/02 15:39:38;471939.00;1.57;813.53;86637.00;0.29;150.50;;;;;15.50;1.00;;;;;;2264694;61;1012;-86
2021/04/02 15:42:05;274817.00;0.92;474.63;82848.00;0.28;143.96;;;;;15.40;1.00;;;;;;2264661;61;1015;-86
2021/04/02 15:44:32;323727.00;1.08;558.70;81610.00;0.27;141.82;;;;;15.00;1.00;;;;;;2264648;61;1094;-87
2021/04/02 15:46:58;528300.00;1.76;910.56;78811.00;0.26;136.98;;;;;15.00;1.00;;;;;;2264551;61;1289;-89
2021/04/02 15:49:25;315766.00;1.05;545.02;93468.00;0.31;162.30;;;;;14.90;1.00;;;;;;2264697;61;1127;-89
2021/04/02 15:51:52;472634.00;1.58;814.72;107385.00;0.36;186.32;;;;;15.30;1.00;;;;;;2264570;61;1996;-89
2021/04/02 15:54:18;262559.00;0.88;453.55;80557.00;0.27;140.00;;;;;15.60;1.00;;;;;;2264464;61;1641;-87
2021/04/02 15:56:45;359682.00;1.20;620.50;87222.00;0.29;151.51;;;;;15.30;1.00;;;;;;2264344;61;1315;-87
2021/04/02 15:59:12;84503.00;0.28;146.81;0.00;0.00;0.62;;;;;15.10;1.00;;;;;;2264495;61;1746;-86
2021/04/02 16:01:38;207663.00;0.69;359.11;0.00;0.00;0.62;;;;;14.90;1.00;;;;;;2264520;61;1105;-85
2021/04/02 16:04:05;176629.00;0.59;305.68;0.00;0.00;0.62;;;;;14.90;1.00;;;;;;2264445;61;1732;-87
2021/04/02 16:06:35;149126.00;0.50;258.30;0.00;0.00;0.62;;;;;15.10;1.00;;;;;;2264440;61;1295;-87
2021/04/02 16:09:02;145965.00;0.49;252.85;0.00;0.00;0.62;;;;;15.10;1.00;;;;;;2264327;61;1128;-86
2021/04/02 16:11:28;153685.00;0.51;266.16;0.00;0.00;0.62;;;;;14.90;1.00;;;;;;2260510;61;984;-86
2021/04/02 16:13:55;155797.00;0.52;269.80;0.00;0.00;0.62;;;;;14.80;1.00;;;;;;2260525;61;1936;-88
2021/04/02 16:16:22;111330.00;0.37;193.12;0.00;0.00;0.62;;;;;15.00;1.00;;;;;;2260618;61;1432;-89
2021/04/02 16:18:49;178373.00;0.59;308.69;0.00;0.00;0.62;;;;;15.20;1.00;;;;;;2264208;61;1218;-88
2021/04/02 16:21:15;282946.00;0.94;488.60;0.00;0.00;0.62;;;;;15.20;1.00;;;;;;2264243;61;1676;-88
2021/04/02 16:23:41;355104.00;1.18;612.63;22427.00;0.07;39.47;;;;;15.10;1.00;;;;;;2264259;61;1068;-87
2021/04/02 16:26:09;224341.00;0.75;387.81;0.00;0.00;0.62;;;;;15.30;1.00;;;;;;2264327;61;1301;-87
2021/04/02 16:28:35;89269.00;0.30;155.05;0.00;0.00;0.62;;;;;14.80;1.00;;;;;;2264337;61;1180;-88
2021/04/02 16:31:02;219067.00;0.73;378.74;0.00;0.00;0.62;;;;;14.50;1.00;;;;;;2260528;61;1105;-85
2021/04/02 16:33:28;138801.00;0.46;240.50;0.00;0.00;0.62;;;;;14.40;1.00;;;;;;2264365;61;1912;-87